createdAt,value
2017-07-19T00:00:31.993Z,100285
2017-07-19T00:03:00.320Z,100281
2017-07-19T00:08:40.369Z,100288
2017-07-19T00:11:08.687Z,100283
2017-07-19T00:13:36.993Z,100280
2017-07-19T00:16:05.254Z,100278
2017-07-19T00:18:33.557Z,100278
2017-07-19T00:24:03.111Z,100274
2017-07-19T00:26:31.388Z,100265
2017-07-19T00:29:00.410Z,100267
2017-07-19T00:31:28.759Z,100275
2017-07-19T00:33:57.007Z,100273
2017-07-19T00:36:25.253Z,100271
2017-07-19T00:38:53.516Z,100271
2017-07-19T00:41:21.781Z,100275
2017-07-19T00:43:50.777Z,100268
2017-07-19T00:46:19.111Z,100266
2017-07-19T00:48:47.344Z,100264
2017-07-19T00:51:15.583Z,100262
2017-07-19T00:53:43.873Z,100269
2017-07-19T00:56:12.878Z,100269
2017-07-19T00:58:41.119Z,100260
2017-07-19T01:01:09.434Z,100259
2017-07-19T01:03:39.398Z,100257
2017-07-19T01:06:07.624Z,100247
2017-07-19T01:08:35.926Z,100241
2017-07-19T01:11:04.190Z,100237
2017-07-19T01:13:32.442Z,100227
2017-07-19T01:22:01.674Z,100233
2017-07-19T01:24:29.926Z,100241
2017-07-19T01:26:58.293Z,100241
2017-07-19T01:29:27.317Z,100237
2017-07-19T01:31:56.335Z,100242
2017-07-19T01:34:24.653Z,100241
2017-07-19T01:36:52.893Z,100232
2017-07-19T01:39:21.135Z,100238
2017-07-19T01:41:50.232Z,100240
2017-07-19T01:47:19.021Z,100227
2017-07-19T01:49:47.254Z,100223
2017-07-19T01:52:15.500Z,100233
2017-07-19T01:54:43.808Z,100227
2017-07-19T01:57:12.056Z,100226
2017-07-19T01:59:40.339Z,100218
2017-07-19T02:02:08.672Z,100232
2017-07-19T02:04:36.921Z,100221
2017-07-19T02:07:08.506Z,100228
2017-07-19T02:09:36.803Z,100221
2017-07-19T02:15:05.377Z,100209
2017-07-19T02:17:34.373Z,100208
2017-07-19T02:20:02.608Z,100189
2017-07-19T02:22:30.909Z,100174
2017-07-19T02:24:59.158Z,100159
2017-07-19T02:27:40.400Z,100156
2017-07-19T02:30:08.647Z,100159
2017-07-19T02:32:36.914Z,100156
2017-07-19T02:35:05.569Z,100155
2017-07-19T02:37:33.801Z,100152
2017-07-19T02:43:03.260Z,100151
2017-07-19T02:45:31.506Z,100160
2017-07-19T02:47:59.761Z,100168
2017-07-19T02:50:28.398Z,100166
2017-07-19T02:52:57.474Z,100174
2017-07-19T02:58:26.272Z,100178
2017-07-19T03:00:55.267Z,100172
2017-07-19T03:03:23.541Z,100173
2017-07-19T03:05:51.815Z,100169
2017-07-19T03:11:22.208Z,100170
2017-07-19T03:13:50.442Z,100162
2017-07-19T03:16:18.682Z,100162
2017-07-19T03:18:47.333Z,100169
2017-07-19T03:21:39.131Z,100174
2017-07-19T03:24:27.005Z,100170
2017-07-19T03:26:55.274Z,100166
2017-07-19T03:29:23.493Z,100167
2017-07-19T03:31:52.536Z,100163
2017-07-19T03:34:20.858Z,100168
2017-07-19T03:37:03.794Z,100174
2017-07-19T03:42:34.233Z,100190
2017-07-19T03:45:03.330Z,100182
2017-07-19T03:47:32.385Z,100181
2017-07-19T03:56:01.636Z,100183
2017-07-19T03:58:29.891Z,100183
2017-07-19T04:00:58.199Z,100171
2017-07-19T04:03:27.220Z,100164
2017-07-19T04:05:55.495Z,100160
2017-07-19T04:11:24.887Z,100154
2017-07-19T04:13:53.926Z,100159
2017-07-19T04:16:22.158Z,100161
2017-07-19T04:21:50.721Z,100157
2017-07-19T04:24:19.843Z,100160
2017-07-19T04:26:48.082Z,100155
2017-07-19T04:29:16.350Z,100159
2017-07-19T04:31:44.627Z,100160
2017-07-19T04:37:13.531Z,100164
2017-07-19T04:39:41.784Z,100160
2017-07-19T04:42:10.782Z,100160
2017-07-19T04:44:39.051Z,100161
2017-07-19T04:53:09.852Z,100170
2017-07-19T04:55:38.114Z,100171
2017-07-19T04:58:06.423Z,100173
2017-07-19T05:03:19.569Z,100164
2017-07-19T05:05:48.973Z,100167
2017-07-19T05:08:17.214Z,100166
2017-07-19T05:11:09.355Z,100166
2017-07-19T05:13:40.952Z,100172
2017-07-19T05:16:39.353Z,100175
2017-07-19T05:31:38.214Z,100171
2017-07-19T05:43:21.843Z,100175
2017-07-19T06:00:54.415Z,100175
2017-07-19T06:24:40.343Z,100172
2017-07-19T06:30:08.475Z,100166
2017-07-19T06:32:36.735Z,100169
2017-07-19T07:02:11.695Z,100153
2017-07-19T07:04:40.715Z,100161
2017-07-19T07:07:21.921Z,100157
2017-07-19T07:12:51.102Z,100147
2017-07-19T07:15:19.382Z,100153
2017-07-19T07:17:47.638Z,100146
2017-07-19T07:23:15.630Z,100142
2017-07-19T07:25:43.871Z,100140
2017-07-19T07:28:12.735Z,100140
2017-07-19T07:30:41.066Z,100131
2017-07-19T07:36:10.093Z,100126
2017-07-19T07:38:38.350Z,100130
2017-07-19T07:41:07.000Z,100134
2017-07-19T07:43:35.571Z,100126
2017-07-19T07:49:08.250Z,100121
2017-07-19T07:51:36.507Z,100124
2017-07-19T07:54:05.611Z,100118
2017-07-19T07:56:33.921Z,100116
2017-07-19T07:59:02.165Z,100106
2017-07-19T08:07:39.732Z,100096
2017-07-19T08:10:07.968Z,100094
2017-07-19T08:12:36.221Z,100096
2017-07-19T08:15:05.320Z,100096
2017-07-19T08:17:33.628Z,100088
2017-07-19T08:23:03.189Z,100083
2017-07-19T08:25:31.447Z,100085
2017-07-19T08:31:00.427Z,100085
2017-07-19T08:33:28.692Z,100082
2017-07-19T08:35:56.958Z,100076
2017-07-19T08:38:26.043Z,100083
2017-07-19T08:40:54.300Z,100086
2017-07-19T08:46:23.589Z,100082
2017-07-19T08:48:51.849Z,100081
2017-07-19T08:51:20.105Z,100084
2017-07-19T08:53:48.431Z,100082
2017-07-19T08:56:16.677Z,100073
2017-07-19T08:58:44.907Z,100081
2017-07-19T09:04:14.440Z,100057
2017-07-19T09:06:43.701Z,100054
2017-07-19T09:09:11.954Z,100066
2017-07-19T09:14:41.271Z,100054
2017-07-19T09:17:09.620Z,100054
2017-07-19T09:19:37.851Z,100052
2017-07-19T09:22:06.094Z,100052
2017-07-19T09:30:42.068Z,100030
2017-07-19T09:33:10.316Z,100033
2017-07-19T09:35:39.343Z,100034
2017-07-19T09:38:07.672Z,100031
2017-07-19T09:43:36.922Z,100019
2017-07-19T09:46:05.917Z,100018
2017-07-19T09:48:34.146Z,100017
2017-07-19T09:51:02.714Z,100007
2017-07-19T09:53:30.961Z,100002
2017-07-19T09:55:59.241Z,99998
2017-07-19T10:01:27.982Z,99995
2017-07-19T10:03:56.581Z,99993
2017-07-19T10:09:26.154Z,99989
2017-07-19T10:11:54.400Z,99992
2017-07-19T10:14:23.419Z,99986
2017-07-19T10:16:51.694Z,99992
2017-07-19T10:19:19.967Z,99988
2017-07-19T10:24:49.379Z,99984
2017-07-19T10:30:19.514Z,99985
2017-07-19T10:32:48.513Z,99984
2017-07-19T10:38:16.800Z,99973
2017-07-19T10:40:45.802Z,99976
2017-07-19T10:43:14.059Z,99964
2017-07-19T10:45:43.089Z,99960
2017-07-19T10:57:12.607Z,99947
2017-07-19T10:59:40.830Z,99940
2017-07-19T11:05:08.969Z,99936
2017-07-19T11:07:37.318Z,99934
2017-07-19T11:19:08.249Z,99925
2017-07-19T11:21:36.470Z,99917
2017-07-19T11:24:04.726Z,99914
2017-07-19T11:26:33.055Z,99917
2017-07-19T11:29:01.315Z,99917
2017-07-19T11:40:39.916Z,99900
2017-07-19T11:43:08.167Z,99901
2017-07-19T11:45:36.403Z,99903
2017-07-19T11:48:05.676Z,99893
2017-07-19T11:53:35.253Z,99889
2017-07-19T11:56:03.502Z,99896
2017-07-19T11:58:31.725Z,99895
2017-07-19T12:01:00.062Z,99891
2017-07-19T12:03:28.308Z,99880
2017-07-19T12:05:57.322Z,99886
2017-07-19T12:08:25.617Z,99877
2017-07-19T12:10:53.846Z,99877
2017-07-19T12:16:23.636Z,99865
2017-07-19T12:21:52.332Z,99867
2017-07-19T12:24:20.824Z,99874
2017-07-19T12:32:50.250Z,99862
2017-07-19T12:35:18.503Z,99859
2017-07-19T12:37:46.812Z,99861
2017-07-19T12:40:15.346Z,99861
2017-07-19T12:43:10.378Z,99863
2017-07-19T12:45:38.640Z,99848
2017-07-19T12:48:06.884Z,99854
2017-07-19T12:50:35.183Z,99853
2017-07-19T12:53:04.180Z,99843
2017-07-19T12:55:32.429Z,99835
2017-07-19T12:58:00.712Z,99835
2017-07-19T13:03:29.392Z,99818
2017-07-19T13:05:57.637Z,99817
2017-07-19T13:08:25.890Z,99811
2017-07-19T13:22:56.780Z,99794
2017-07-19T13:25:40.422Z,99791
2017-07-19T13:28:39.880Z,99785
2017-07-19T13:31:08.131Z,99785
2017-07-19T13:33:36.404Z,99784
2017-07-19T13:36:04.722Z,99780
2017-07-19T13:44:43.370Z,99766
2017-07-19T13:47:12.574Z,99772
2017-07-19T13:49:40.814Z,99768
2017-07-19T13:52:15.580Z,99765
2017-07-19T13:54:43.821Z,99761
2017-07-19T14:00:13.718Z,99742
2017-07-19T14:02:42.723Z,99745
2017-07-19T14:08:11.548Z,99742
2017-07-19T14:13:40.825Z,99734
2017-07-19T14:16:09.071Z,99740
2017-07-19T14:18:37.334Z,99723
2017-07-19T14:21:05.926Z,99728
2017-07-19T14:26:34.906Z,99715
2017-07-19T14:29:03.160Z,99713
2017-07-19T14:31:31.397Z,99715
2017-07-19T14:36:59.871Z,99713
2017-07-19T14:42:28.161Z,99721
2017-07-19T14:44:56.422Z,99699
2017-07-19T14:50:25.054Z,99707
2017-07-19T14:52:53.324Z,99704
2017-07-19T14:55:21.590Z,99704
2017-07-19T14:57:49.868Z,99697
2017-07-19T15:00:18.125Z,99694
2017-07-19T15:05:46.296Z,99686
2017-07-19T15:11:15.956Z,99686
2017-07-19T15:13:44.190Z,99677
2017-07-19T15:19:13.396Z,99670
2017-07-19T15:21:42.535Z,99678
2017-07-19T15:24:10.780Z,99669
2017-07-19T15:26:39.082Z,99672
2017-07-19T15:29:08.075Z,99669
2017-07-19T15:34:37.919Z,99663
2017-07-19T15:37:06.161Z,99665
2017-07-19T15:39:34.420Z,99660
2017-07-19T15:42:03.523Z,99662
2017-07-19T15:47:41.315Z,99656
2017-07-19T15:50:39.898Z,99658
2017-07-19T15:53:08.233Z,99656
2017-07-19T15:55:36.473Z,99652
2017-07-19T15:58:04.745Z,99646
2017-07-19T16:00:40.350Z,99653
2017-07-19T16:06:10.555Z,99651
2017-07-19T16:08:39.810Z,99646
2017-07-19T16:11:08.302Z,99642
2017-07-19T16:13:36.673Z,99640
2017-07-19T16:19:05.007Z,99638
2017-07-19T16:21:33.245Z,99652
2017-07-19T16:24:01.566Z,99647
2017-07-19T16:38:40.190Z,99638
2017-07-19T16:47:09.380Z,99633
2017-07-19T16:49:38.520Z,99636
2017-07-19T16:52:06.786Z,99631
2017-07-19T17:00:35.751Z,99628
2017-07-19T17:06:04.074Z,99623
2017-07-19T17:08:40.315Z,99624
2017-07-19T17:14:09.860Z,99632
2017-07-19T17:16:38.109Z,99641
2017-07-19T17:19:06.350Z,99629
2017-07-19T17:24:34.759Z,99618
2017-07-19T17:27:03.011Z,99619
2017-07-19T17:29:31.247Z,99630
2017-07-19T17:31:59.589Z,99627
2017-07-19T17:37:41.953Z,99618
2017-07-19T17:43:11.691Z,99620
2017-07-19T17:45:39.945Z,99619
2017-07-19T17:48:08.223Z,99619
2017-07-19T17:50:42.485Z,99618
2017-07-19T17:53:10.774Z,99624
2017-07-19T17:58:40.460Z,99620
2017-07-19T18:01:08.697Z,99621
2017-07-19T18:03:39.958Z,99626
2017-07-19T18:06:08.206Z,99629
2017-07-19T18:14:36.961Z,99633
2017-07-19T18:23:05.763Z,99633
2017-07-19T18:25:34.012Z,99640
2017-07-19T18:28:02.261Z,99628
2017-07-19T18:30:30.581Z,99638
2017-07-19T18:35:59.448Z,99634
2017-07-19T18:38:27.763Z,99636
2017-07-19T18:40:56.012Z,99639
2017-07-19T18:43:25.031Z,99635
2017-07-19T18:48:53.909Z,99634
2017-07-19T18:54:39.450Z,99632
2017-07-19T18:57:08.575Z,99630
2017-07-19T18:59:40.809Z,99630
2017-07-19T19:02:09.045Z,99621
2017-07-19T19:04:41.241Z,99629
2017-07-19T19:07:09.463Z,99639
2017-07-19T19:09:37.729Z,99638
2017-07-19T19:12:06.033Z,99635
2017-07-19T19:17:35.735Z,99628
2017-07-19T19:23:04.943Z,99630
2017-07-19T19:31:35.712Z,99634
2017-07-19T19:34:03.988Z,99639
2017-07-19T19:39:32.853Z,99641
2017-07-19T19:48:03.711Z,99635
2017-07-19T19:50:31.958Z,99633
2017-07-19T19:53:00.202Z,99633
2017-07-19T19:55:28.521Z,99621
2017-07-19T20:03:59.384Z,99622
2017-07-19T20:15:55.950Z,99609
2017-07-19T20:18:24.233Z,99604
2017-07-19T20:20:53.318Z,99601
2017-07-19T20:32:23.661Z,99604
2017-07-19T20:37:52.987Z,99597
2017-07-19T20:40:40.955Z,99594
2017-07-19T20:43:09.377Z,99597
2017-07-19T20:48:38.718Z,99588
2017-07-19T20:51:06.950Z,99588
2017-07-19T20:56:36.706Z,99580
2017-07-19T20:59:04.957Z,99585
2017-07-19T21:01:34.037Z,99586
2017-07-19T21:04:02.327Z,99582
2017-07-19T21:09:31.329Z,99580
2017-07-19T21:15:00.252Z,99562
2017-07-19T21:26:40.276Z,99578
2017-07-19T21:31:58.834Z,99581
2017-07-19T21:34:27.114Z,99574
2017-07-19T21:36:55.383Z,99579
2017-07-19T21:39:23.840Z,99581
2017-07-19T21:53:54.284Z,99595
2017-07-19T21:56:30.520Z,99590
2017-07-19T21:58:58.825Z,99592
2017-07-19T22:01:27.061Z,99595
2017-07-19T22:06:55.502Z,99597
2017-07-19T22:12:24.032Z,99592
2017-07-19T22:18:01.963Z,99594
2017-07-19T22:20:30.957Z,99587
2017-07-19T22:25:59.608Z,99598
2017-07-19T22:28:27.844Z,99594
2017-07-19T22:33:56.428Z,99590
2017-07-19T22:36:25.421Z,99588
2017-07-19T22:38:54.432Z,99588
2017-07-19T22:41:22.744Z,99590
2017-07-19T22:43:50.972Z,99595
2017-07-19T22:49:19.917Z,99599
2017-07-19T22:54:48.264Z,99593
2017-07-19T22:57:17.267Z,99590
2017-07-19T23:02:47.136Z,99590
2017-07-19T23:08:15.691Z,99593
2017-07-19T23:10:44.682Z,99589
2017-07-19T23:16:40.137Z,99595
2017-07-19T23:25:40.466Z,99597
2017-07-19T23:28:39.299Z,99592
2017-07-19T23:31:07.581Z,99604
2017-07-19T23:36:43.178Z,99603
2017-07-19T23:39:11.433Z,99590
2017-07-19T23:41:39.672Z,99592
2017-07-19T23:44:08.715Z,99585
2017-07-19T23:46:36.945Z,99591
2017-07-19T23:49:05.955Z,99578
2017-07-19T23:51:34.235Z,99580
2017-07-19T23:57:02.939Z,99576
2017-07-19T23:59:31.175Z,99562
